Baltica — 9HA2607 — position and weather

sailwx.info

Track history (hours):
 
Tides and Currents Weather Stations Pressure Air Temp Water Temp Dewpoint Dewpoint Depression Visibility Wind Speed Wind Dir Waves Ship Positions

Baltica

Last reported at 2014-Sep-21 01:32 UTC. Time now 2014-Sep-21 02:00 UTC.
Position N 54°32' E 018°31'.

Length 157 m; draft 7.2 m.

Type: Ship (hazmat cat A). MMSI: 215013000.

Date/timePositionNaut miles runAvg speedWind from/ knotsBaromVisibWave heightAir tempDewpointWater temp
2014-Sep-21 01:32N 54°32' E 018°31'0 0.0
2014-Sep-21 00:29N 54°32' E 018°31'0 0.0
2014-Sep-20 23:32N 54°32' E 018°31'0 0.0
2014-Sep-20 22:32N 54°32' E 018°31'0 0.0
2014-Sep-20 21:32N 54°32' E 018°31'0 0.0
2014-Sep-20 20:33N 54°32' E 018°31'8 8.1
2014-Sep-20 19:34N 54°32' E 018°45'1515.3
2014-Sep-20 18:33N 54°45' E 018°59'1616.1
2014-Sep-20 17:34N 55°01' E 019°08'1616.5
2014-Sep-20 16:33N 55°16' E 019°17'1716.7
2014-Sep-20 15:34N 55°32' E 019°26'1716.6
2014-Sep-20 14:31N 55°49' E 019°36'4916.5
2014-Sep-20 11:32N 56°35' E 020°02'15616.5
2014-Sep-20 02:06N 59°04' E 021°34'916.7
2014-Sep-20 01:34N 59°10' E 021°45'2316.6
2014-Sep-20 00:10N 59°25' E 022°20'1716.4
2014-Sep-19 23:08N 59°32' E 022°50'1116.6
2014-Sep-19 22:30N 59°35' E 023°10'1616.8
2014-Sep-19 21:33N 59°40' E 023°40'1816.5
2014-Sep-19 20:29N 59°45' E 024°14'1616.8
2014-Sep-19 19:34N 59°51' E 024°42'1716.1
2014-Sep-19 18:29N 60°03' E 025°08'1011.3
2014-Sep-19 17:33N 60°13' E 025°12'0 0.0
2014-Sep-19 16:31N 60°13' E 025°12'0 0.0
2014-Sep-19 13:31N 60°13' E 025°12'0 0.0
2014-Sep-19 10:31N 60°13' E 025°12'0 0.0
2014-Sep-19 06:25N 60°13' E 025°12'0 0.1
2014-Sep-19 05:33N 60°13' E 025°12'1211.7
2014-Sep-19 04:33N 60°01' E 025°07'1616.5
2014-Sep-19 03:33N 59°49' E 024°45'1616.2
2014-Sep-19 02:33N 59°42' E 024°16'1616.6
2014-Sep-19 01:33N 59°37' E 023°45'1717.0
2014-Sep-19 00:32N 59°31' E 023°12'2316.9
2014-Sep-18 23:11N 59°23' E 022°31'14816.8
2014-Sep-18 14:24N 57°09' E 020°30'3217.4
2014-Sep-18 12:33N 56°39' E 020°10'1817.7
2014-Sep-18 11:33N 56°22' E 019°60'1717.4
2014-Sep-18 10:33N 56°06' E 019°50'1717.5
2014-Sep-18 09:33N 55°49' E 019°40'3517.5
2014-Sep-18 07:33N 55°16' E 019°20'1717.5
2014-Sep-18 06:33N 54°60' E 019°09'1817.7
2014-Sep-18 05:33N 54°43' E 018°59'1615.6
2014-Sep-18 04:33N 54°32' E 018°40'5 5.1
2014-Sep-18 03:30N 54°32' E 018°31'0 0.0
2014-Sep-18 02:33N 54°32' E 018°31'0 0.0
2014-Sep-18 01:33N 54°32' E 018°31'0 0.0
2014-Sep-18 00:33N 54°32' E 018°31'0 0.0
2014-Sep-17 23:33N 54°32' E 018°31'0 0.0
2014-Sep-17 22:33N 54°32' E 018°31'0 0.0
2014-Sep-17 20:34N 54°32' E 018°31'8 7.8
2014-Sep-17 19:34N 54°32' E 018°45'1615.7
2014-Sep-17 18:34N 54°46' E 018°59'1716.8
2014-Sep-17 17:34N 55°02' E 019°08'1716.7
2014-Sep-17 16:34N 55°17' E 019°17'1716.7
2014-Sep-17 15:32N 55°34' E 019°26'1716.6
2014-Sep-17 14:30N 55°50' E 019°36'19116.8
2014-Sep-17 03:07N 58°52' E 021°24'2616.4
2014-Sep-17 01:34N 59°13' E 021°51'5016.7
2014-Sep-16 22:34N 59°36' E 023°18'1816.9
2014-Sep-16 21:30N 59°41' E 023°52'1616.9
2014-Sep-16 20:33N 59°47' E 024°22'1817.1
2014-Sep-16 19:31N 59°54' E 024°54'1816.6
2014-Sep-16 18:28N 60°09' E 025°12'4 0.8
2014-Sep-16 13:28N 60°13' E 025°12'1513.4
2014-Sep-16 12:22N 59°58' E 025°19'2217.8
2014-Sep-16 11:06N 59°59' E 026°04'1017.8
2014-Sep-16 10:33N 60°00' E 026°23'1817.7
2014-Sep-16 09:32N 59°60' E 026°59'2 0.1
2014-Sep-15 14:34N 59°57' E 027°01'1818.2
2014-Sep-15 13:33N 59°58' E 026°24'3715.4
2014-Sep-15 11:08N 60°04' E 025°11'814.1
2014-Sep-15 10:33N 60°13' E 025°12'0 0.1
2014-Sep-15 08:16N 60°13' E 025°12'0 0.0
2014-Sep-15 07:31N 60°13' E 025°12'0 0.0
2014-Sep-15 06:31N 60°13' E 025°12'0 0.5
2014-Sep-15 05:33N 60°13' E 025°13'1814.9
2014-Sep-15 04:23N 59°56' E 025°01'1517.7
2014-Sep-15 03:33N 59°46' E 024°39'1817.6
2014-Sep-15 02:33N 59°41' E 024°06'1817.9
2014-Sep-15 01:33N 59°36' E 023°32'2018.0
2014-Sep-15 00:28N 59°29' E 022°56'17416.8
2014-Sep-14 14:09N 56°56' E 020°20'2817.5
2014-Sep-14 12:33N 56°29' E 020°04'1817.4
2014-Sep-14 11:32N 56°12' E 019°54'1717.2
2014-Sep-14 10:33N 55°57' E 019°44'1717.3
2014-Sep-14 09:33N 55°40' E 019°34'1717.5
2014-Sep-14 08:33N 55°24' E 019°24'1717.4
2014-Sep-14 07:33N 55°07' E 019°14'1717.5
2014-Sep-14 06:33N 54°51' E 019°04'1817.6
2014-Sep-14 05:33N 54°34' E 018°52'1212.5
2014-Sep-14 04:33N 54°32' E 018°31'0 0.0
2014-Sep-14 03:33N 54°32' E 018°31'0 0.0
2014-Sep-14 02:33N 54°32' E 018°31'0 0.0
2014-Sep-14 01:33N 54°32' E 018°31'0 0.0
2014-Sep-13 21:33N 54°32' E 018°31'0 0.2
2014-Sep-13 20:33N 54°32' E 018°32'9 8.5
2014-Sep-13 19:34N 54°32' E 018°46'1616.1
2014-Sep-13 18:34N 54°46' E 018°60'1716.6
2014-Sep-13 17:34N 55°02' E 019°09'1616.5
2014-Sep-13 16:33N 55°18' E 019°17'1616.4
2014-Sep-13 15:33N 55°33' E 019°26'26915.8
2014-Sep-12 22:34N 59°34' E 023°10'1716.7
2014-Sep-12 21:33N 59°39' E 023°41'1716.7
2014-Sep-12 20:32N 59°45' E 024°13'1616.6
2014-Sep-12 19:33N 59°51' E 024°43'1916.2
2014-Sep-12 18:23N 60°05' E 025°10'8 0.7
2014-Sep-12 07:12N 60°13' E 025°12'0 0.0
2014-Sep-12 06:18N 60°13' E 025°12'0 0.3
2014-Sep-12 05:27N 60°13' E 025°12'1212.9
2014-Sep-12 04:32N 60°01' E 025°06'1616.4
2014-Sep-12 03:33N 59°49' E 024°46'1716.7
2014-Sep-12 02:31N 59°42' E 024°14'1717.3
2014-Sep-12 01:33N 59°37' E 023°43'1717.2
2014-Sep-12 00:33N 59°32' E 023°10'15816.7
2014-Sep-11 15:05N 57°17' E 020°34'4717.4
2014-Sep-11 12:25N 56°33' E 020°06'5017.4
2014-Sep-11 09:31N 55°45' E 019°37'1717.6
2014-Sep-11 08:33N 55°29' E 019°28'1717.5
2014-Sep-11 07:33N 55°13' E 019°18'1717.3
2014-Sep-11 06:33N 54°56' E 019°08'1717.3
2014-Sep-11 05:33N 54°40' E 018°58'1514.7
2014-Sep-11 04:33N 54°32' E 018°36'3 2.9
2014-Sep-11 03:33N 54°32' E 018°31'0 0.0
2014-Sep-11 02:33N 54°32' E 018°31'0 0.0
2014-Sep-11 01:33N 54°32' E 018°31'  
Track history (hours):
 
Tides and Currents Weather Stations Pressure Air Temp Water Temp Dewpoint Dewpoint Depression Visibility Wind Speed Wind Dir Waves Ship Positions

Baltica

Last reported at 2014-Sep-21 01:32 UTC. Time now 2014-Sep-21 02:00 UTC.
Position N 54°32' E 018°31'.

Length 157 m; draft 7.2 m.

Type: Ship (hazmat cat A). MMSI: 215013000.

Date/timePositionNaut miles runAvg speedWind from/ knotsBaromVisibWave heightAir tempDewpointWater temp
2014-Sep-21 01:32N 54°32' E 018°31'0 0.0
2014-Sep-21 00:29N 54°32' E 018°31'0 0.0
2014-Sep-20 23:32N 54°32' E 018°31'0 0.0
2014-Sep-20 22:32N 54°32' E 018°31'0 0.0
2014-Sep-20 21:32N 54°32' E 018°31'0 0.0
2014-Sep-20 20:33N 54°32' E 018°31'8 8.1
2014-Sep-20 19:34N 54°32' E 018°45'1515.3
2014-Sep-20 18:33N 54°45' E 018°59'1616.1
2014-Sep-20 17:34N 55°01' E 019°08'1616.5
2014-Sep-20 16:33N 55°16' E 019°17'1716.7
2014-Sep-20 15:34N 55°32' E 019°26'1716.6
2014-Sep-20 14:31N 55°49' E 019°36'4916.5
2014-Sep-20 11:32N 56°35' E 020°02'15616.5
2014-Sep-20 02:06N 59°04' E 021°34'916.7
2014-Sep-20 01:34N 59°10' E 021°45'2316.6
2014-Sep-20 00:10N 59°25' E 022°20'1716.4
2014-Sep-19 23:08N 59°32' E 022°50'1116.6
2014-Sep-19 22:30N 59°35' E 023°10'1616.8
2014-Sep-19 21:33N 59°40' E 023°40'1816.5
2014-Sep-19 20:29N 59°45' E 024°14'1616.8
2014-Sep-19 19:34N 59°51' E 024°42'1716.1
2014-Sep-19 18:29N 60°03' E 025°08'1011.3
2014-Sep-19 17:33N 60°13' E 025°12'0 0.0
2014-Sep-19 16:31N 60°13' E 025°12'0 0.0
2014-Sep-19 13:31N 60°13' E 025°12'0 0.0
2014-Sep-19 10:31N 60°13' E 025°12'0 0.0
2014-Sep-19 06:25N 60°13' E 025°12'0 0.1
2014-Sep-19 05:33N 60°13' E 025°12'1211.7
2014-Sep-19 04:33N 60°01' E 025°07'1616.5
2014-Sep-19 03:33N 59°49' E 024°45'1616.2
2014-Sep-19 02:33N 59°42' E 024°16'1616.6
2014-Sep-19 01:33N 59°37' E 023°45'1717.0
2014-Sep-19 00:32N 59°31' E 023°12'2316.9
2014-Sep-18 23:11N 59°23' E 022°31'14816.8
2014-Sep-18 14:24N 57°09' E 020°30'3217.4
2014-Sep-18 12:33N 56°39' E 020°10'1817.7
2014-Sep-18 11:33N 56°22' E 019°60'1717.4
2014-Sep-18 10:33N 56°06' E 019°50'1717.5
2014-Sep-18 09:33N 55°49' E 019°40'3517.5
2014-Sep-18 07:33N 55°16' E 019°20'1717.5
2014-Sep-18 06:33N 54°60' E 019°09'1817.7
2014-Sep-18 05:33N 54°43' E 018°59'1615.6
2014-Sep-18 04:33N 54°32' E 018°40'5 5.1
2014-Sep-18 03:30N 54°32' E 018°31'0 0.0
2014-Sep-18 02:33N 54°32' E 018°31'0 0.0
2014-Sep-18 01:33N 54°32' E 018°31'0 0.0
2014-Sep-18 00:33N 54°32' E 018°31'0 0.0
2014-Sep-17 23:33N 54°32' E 018°31'0 0.0
2014-Sep-17 22:33N 54°32' E 018°31'0 0.0
2014-Sep-17 20:34N 54°32' E 018°31'8 7.8
2014-Sep-17 19:34N 54°32' E 018°45'1615.7
2014-Sep-17 18:34N 54°46' E 018°59'1716.8
2014-Sep-17 17:34N 55°02' E 019°08'1716.7
2014-Sep-17 16:34N 55°17' E 019°17'1716.7
2014-Sep-17 15:32N 55°34' E 019°26'1716.6
2014-Sep-17 14:30N 55°50' E 019°36'19116.8
2014-Sep-17 03:07N 58°52' E 021°24'2616.4
2014-Sep-17 01:34N 59°13' E 021°51'5016.7
2014-Sep-16 22:34N 59°36' E 023°18'1816.9
2014-Sep-16 21:30N 59°41' E 023°52'1616.9
2014-Sep-16 20:33N 59°47' E 024°22'1817.1
2014-Sep-16 19:31N 59°54' E 024°54'1816.6
2014-Sep-16 18:28N 60°09' E 025°12'4 0.8
2014-Sep-16 13:28N 60°13' E 025°12'1513.4
2014-Sep-16 12:22N 59°58' E 025°19'2217.8
2014-Sep-16 11:06N 59°59' E 026°04'1017.8
2014-Sep-16 10:33N 60°00' E 026°23'1817.7
2014-Sep-16 09:32N 59°60' E 026°59'2 0.1
2014-Sep-15 14:34N 59°57' E 027°01'1818.2
2014-Sep-15 13:33N 59°58' E 026°24'3715.4
2014-Sep-15 11:08N 60°04' E 025°11'814.1
2014-Sep-15 10:33N 60°13' E 025°12'0 0.1
2014-Sep-15 08:16N 60°13' E 025°12'0 0.0
2014-Sep-15 07:31N 60°13' E 025°12'0 0.0
2014-Sep-15 06:31N 60°13' E 025°12'0 0.5
2014-Sep-15 05:33N 60°13' E 025°13'1814.9
2014-Sep-15 04:23N 59°56' E 025°01'1517.7
2014-Sep-15 03:33N 59°46' E 024°39'1817.6
2014-Sep-15 02:33N 59°41' E 024°06'1817.9
2014-Sep-15 01:33N 59°36' E 023°32'2018.0
2014-Sep-15 00:28N 59°29' E 022°56'17416.8
2014-Sep-14 14:09N 56°56' E 020°20'2817.5
2014-Sep-14 12:33N 56°29' E 020°04'1817.4
2014-Sep-14 11:32N 56°12' E 019°54'1717.2
2014-Sep-14 10:33N 55°57' E 019°44'1717.3
2014-Sep-14 09:33N 55°40' E 019°34'1717.5
2014-Sep-14 08:33N 55°24' E 019°24'1717.4
2014-Sep-14 07:33N 55°07' E 019°14'1717.5
2014-Sep-14 06:33N 54°51' E 019°04'1817.6
2014-Sep-14 05:33N 54°34' E 018°52'1212.5
2014-Sep-14 04:33N 54°32' E 018°31'0 0.0
2014-Sep-14 03:33N 54°32' E 018°31'0 0.0
2014-Sep-14 02:33N 54°32' E 018°31'0 0.0
2014-Sep-14 01:33N 54°32' E 018°31'0 0.0
2014-Sep-13 21:33N 54°32' E 018°31'0 0.2
2014-Sep-13 20:33N 54°32' E 018°32'9 8.5
2014-Sep-13 19:34N 54°32' E 018°46'1616.1
2014-Sep-13 18:34N 54°46' E 018°60'1716.6
2014-Sep-13 17:34N 55°02' E 019°09'1616.5
2014-Sep-13 16:33N 55°18' E 019°17'1616.4
2014-Sep-13 15:33N 55°33' E 019°26'26915.8
2014-Sep-12 22:34N 59°34' E 023°10'1716.7
2014-Sep-12 21:33N 59°39' E 023°41'1716.7
2014-Sep-12 20:32N 59°45' E 024°13'1616.6
2014-Sep-12 19:33N 59°51' E 024°43'1916.2
2014-Sep-12 18:23N 60°05' E 025°10'8 0.7
2014-Sep-12 07:12N 60°13' E 025°12'0 0.0
2014-Sep-12 06:18N 60°13' E 025°12'0 0.3
2014-Sep-12 05:27N 60°13' E 025°12'1212.9
2014-Sep-12 04:32N 60°01' E 025°06'1616.4
2014-Sep-12 03:33N 59°49' E 024°46'1716.7
2014-Sep-12 02:31N 59°42' E 024°14'1717.3
2014-Sep-12 01:33N 59°37' E 023°43'1717.2
2014-Sep-12 00:33N 59°32' E 023°10'15816.7
2014-Sep-11 15:05N 57°17' E 020°34'4717.4
2014-Sep-11 12:25N 56°33' E 020°06'5017.4
2014-Sep-11 09:31N 55°45' E 019°37'1717.6
2014-Sep-11 08:33N 55°29' E 019°28'1717.5
2014-Sep-11 07:33N 55°13' E 019°18'1717.3
2014-Sep-11 06:33N 54°56' E 019°08'1717.3
2014-Sep-11 05:33N 54°40' E 018°58'1514.7
2014-Sep-11 04:33N 54°32' E 018°36'3 2.9
2014-Sep-11 03:33N 54°32' E 018°31'0 0.0
2014-Sep-11 02:33N 54°32' E 018°31'0 0.0
2014-Sep-11 01:33N 54°32' E 018°31'  

Dump ship's entire track history